Aviation Digital Data Service (ADDS)

Output produced by METARs form (0013 UTC 18 April 2014)
found at http://aviationweather.gov/adds/metars/
 
KBFD 172338Z 1800/1824 17011KT P6SM SKC 
     FM180600 15006KT P6SM SCT015 BKN025 
     FM181500 19009G15KT P6SM SCT050 
     FM182300 25005KT P6SM BKN050